South Bend Regional Airport
KSBN : now visible

Airfield :











YOU CAN JOIN US ON...

 
LOGIN :

Register | Disclaimer

   EN    FR    IT 

 









Legend :    VFR   Marginal VFR   IFR   Intensive IFR   Very Intensive IFR
Visi :
Ceiling :
>= 8 km
>= 3000ft
5 to 8 km
1000 to 3000 ft
1500m to 5 km
500 to 1000 ft
800 to 1500m
200 to 500 ft
< 800m
< 200 ft
Symbols :   Thunderstorms  Fog  Heavy snow  Heavy precipitations  Wind > 20 kt






- Airport Elevation : 799 ft
- IATA code : SBN


KSBN - South Bend Regional

CURRENT METAR :
  • 221054Z 11013KT 1SM R27L/P6000FT BR OVC003 09/09 A3012 RMK AO2 SLP203 T00940089 $

EXPIRED METARs :
  • 221042Z 11012KT 1SM R27L/P6000FT BR OVC003 09/09 A3013 RMK AO2 T00940089 $
  • 221008Z 09007KT 2 1/2SM BR OVC004 09/08 A3014 RMK AO2 T00940083 $
  • 220954Z 09008KT 3SM BR OVC004 09/08 A3013 RMK AO2 SLP206 T00940083 $
  • 220854Z AUTO 36006KT 8SM OVC005 09/08 A3016 RMK AO2 LTG DSNT NW-NE SLP214 60024 T00940083 55007 $

TAF KSBN
Valid from the 22 at 08:00 until the 23 at 06:00 UTC


220809Z 2208/2306 09008KT 4SM BR OVC006
FM221100 10009KT 3SM BR OVC004 WS020/23040KT
FM221600 14010KT P6SM BKN025
FM221800 19012G20KT P6SM SCT035
KZAU FIR / North America



MET'MAP, your aeronautical weather chart ! - Copyright ORBIFLY December 2007 - Disclaimer

ORBIFLY MET'MAP TEAM :

Programming & Development : Alexandra Zaïnal
Concept & original design : Baudouin d'Aumeries
Assistance for programming : Marc-Olivier Méhu
Technical & hardware support : Manuel Goepfert

Contact : metmap@orbifly.com




SOURCES & CREDITS :

   NOAA       Earth
Advisory